Date,TemperatureHighF,TemperatureAvgF,TemperatureLowF,DewpointHighF,DewpointAvgF,DewpointLowF,HumidityHigh,HumidityAvg,HumidityLow,PressureMaxIn,PressureMinIn,WindSpeedMaxMPH,WindSpeedAvgMPH,GustSpeedMaxMPH,PrecipitationSumIn
2013-1-1,39.6,37.0,30.4,33.0,29.8,21.0,82,75,66,30.03,29.90,6,2,10,0.00
2013-1-2,30.9,27.7,23.4,23.0,18.1,16.0,84,67,57,30.24,30.00,13,2,18,0.00
2013-1-3,33.8,26.8,20.5,23.0,18.9,16.0,82,72,58,30.25,30.13,5,1,11,0.00
2013-1-4,38.3,33.9,30.1,26.0,23.7,22.0,75,67,57,30.16,30.05,17,2,20,0.00
2013-1-5,37.8,32.0,26.1,26.0,23.4,21.0,84,71,60,30.37,30.10,13,2,17,0.00
2013-1-6,45.6,36.8,26.6,34.0,29.8,26.0,99,78,56,30.22,30.02,4,1,12,0.00
2013-1-7,42.7,38.1,27.6,32.0,29.6,25.0,91,72,59,30.42,30.12,9,2,14,0.00
2013-1-8,46.5,33.6,23.8,35.0,29.0,23.0,96,84,62,30.42,30.37,4,1,6,0.00
2013-1-9,44.3,34.2,24.5,40.0,32.4,24.0,98,93,81,30.39,30.21,4,1,7,0.02
2013-1-10,46.0,40.3,34.2,35.0,30.2,28.0,81,68,54,30.58,30.35,7,2,14,0.00
2013-1-11,44.8,39.7,33.8,42.0,36.0,29.0,100,87,75,30.51,30.10,8,2,11,0.38
2013-1-12,51.5,43.9,40.9,48.0,43.6,41.0,100,98,89,30.18,30.10,4,1,7,0.00
2013-1-13,47.7,44.8,40.1,48.0,44.9,40.0,100,100,100,30.14,29.98,6,2,9,0.01
2013-1-14,51.1,47.8,39.9,51.0,44.1,34.0,100,88,60,30.30,29.92,12,2,15,0.19
2013-1-15,39.9,37.0,33.3,40.0,33.2,29.0,99,86,74,30.36,30.19,6,2,10,0.28
2013-1-16,36.3,34.4,32.8,36.0,34.1,32.0,99,99,97,30.18,29.84,4,1,10,0.59
2013-1-17,40.0,37.6,34.4,37.0,32.7,31.0,99,83,71,30.13,29.97,10,2,18,0.00
2013-1-18,35.9,29.8,25.0,30.0,17.4,9.0,80,61,41,30.48,30.03,15,3,28,0.00
2013-1-19,53.2,37.1,25.3,32.0,26.0,16.0,79,65,41,30.40,29.91,12,3,16,0.00
2013-1-20,52.8,40.1,28.8,34.0,24.4,15.0,77,56,28,30.09,29.78,13,4,28,0.00
2013-1-21,33.5,27.7,22.8,25.0,17.0,13.0,83,65,55,30.12,29.87,11,3,18,0.00
2013-1-22,23.2,16.8,12.1,19.0,0.2,-4.0,82,49,41,30.29,29.93,15,5,23,0.00
2013-1-23,20.4,14.1,9.8,6.0,1.9,-1.0,75,59,44,30.33,30.19,11,2,16,0.00
2013-1-24,24.4,18.5,12.7,10.0,5.6,1.0,82,59,36,30.50,30.14,16,3,25,0.00
2013-1-25,20.8,16.1,10.5,16.0,7.6,2.0,93,71,48,30.50,30.10,8,1,10,0.00
2013-1-26,25.9,19.0,13.2,16.0,13.9,11.0,93,81,61,30.43,30.10,7,1,13,0.00
2013-1-27,33.5,22.1,8.6,19.0,14.7,7.0,94,75,51,30.60,30.44,6,1,10,0.00
2013-1-28,34.9,31.5,24.6,35.0,30.0,19.0,100,94,78,30.51,30.06,8,1,12,0.00
2013-1-29,57.6,44.7,34.8,52.0,42.9,35.0,100,93,82,30.15,29.99,6,2,8,0.02
2013-1-30,63.9,53.0,42.8,60.0,52.3,43.0,100,97,88,29.98,29.30,16,3,24,1.56
2013-1-31,57.0,40.3,26.8,57.0,28.7,13.0,100,65,45,29.85,29.12,22,6,30,0.89
2013-2-1,28.4,25.2,19.5,20.0,11.4,6.0,76,57,43,30.33,29.82,19,5,31,0.00
2013-2-2,25.5,20.8,13.2,23.0,13.6,6.0,96,75,56,30.36,30.04,7,2,13,0.00
2013-2-3,31.4,26.2,19.5,27.0,23.1,15.0,97,88,67,30.04,29.82,10,1,18,0.04
2013-2-4,31.2,26.1,20.6,24.0,15.5,11.0,84,65,52,30.07,29.92,8,2,18,0.00
2013-2-5,33.7,30.9,28.1,31.0,27.9,24.0,96,88,80,29.96,29.88,3,1,5,0.01
2013-2-6,38.5,32.0,27.0,32.0,26.5,19.0,99,81,58,30.36,29.94,9,1,16,0.02
2013-2-7,35.1,29.5,22.7,25.0,20.2,16.0,90,69,46,30.48,30.27,8,2,11,0.00
2013-2-8,38.1,34.6,30.5,36.0,32.3,24.0,100,91,72,30.27,29.74,14,4,29,0.07
2013-2-9,33.0,28.0,23.9,25.0,18.9,16.0,81,69,59,30.40,29.87,21,6,32,0.00
2013-2-10,40.1,29.3,16.4,26.0,17.4,12.0,88,64,35,30.50,30.29,6,2,13,0.01
2013-2-11,46.6,39.6,33.1,46.0,38.1,26.0,100,95,73,30.27,29.68,8,2,20,0.17
2013-2-12,43.7,39.2,29.0,34.0,28.2,25.0,87,66,54,30.00,29.79,15,4,30,0.00
2013-2-13,41.4,33.1,24.1,34.0,28.8,23.0,99,85,62,29.98,29.69,6,1,8,0.04
2013-2-14,44.7,37.8,32.0,33.0,31.0,29.0,99,77,58,30.00,29.76,6,1,13,0.09
2013-2-15,53.7,40.2,29.3,38.0,32.9,28.0,98,78,50,30.03,29.93,12,2,18,0.11
2013-2-16,34.6,32.1,29.6,33.0,27.9,18.0,100,86,60,30.00,29.84,8,2,14,0.05
2013-2-17,29.6,26.2,21.2,19.0,11.2,4.0,71,54,37,30.15,29.81,20,7,36,0.00
2013-2-18,36.2,27.0,18.8,22.0,12.2,7.0,71,55,35,30.36,30.16,19,3,25,0.00
2013-2-19,41.3,35.8,29.9,40.0,30.9,21.0,98,83,61,30.17,29.71,18,3,19,0.21
2013-2-20,35.1,28.0,23.2,23.0,15.3,12.0,67,59,52,30.11,29.82,14,6,26,0.00
2013-2-21,34.2,28.2,23.0,20.0,16.0,12.0,71,61,51,30.33,30.09,15,4,22,0.00
2013-2-22,34.7,29.6,23.5,31.0,23.4,18.0,90,78,66,30.40,30.25,9,2,12,0.00
2013-2-23,44.7,38.1,32.8,45.0,37.8,31.0,100,99,91,30.25,29.83,4,1,7,0.06
2013-2-24,43.3,37.7,31.4,40.0,31.1,22.0,100,79,57,30.08,29.80,19,3,26,0.00
2013-2-25,45.5,36.7,28.9,30.0,25.6,22.0,76,65,50,30.23,30.08,11,2,13,0.00
2013-2-26,43.0,36.2,28.1,37.0,31.2,25.0,96,82,69,30.25,29.73,16,5,27,0.26
2013-2-27,50.6,43.6,38.0,43.0,39.3,35.0,99,86,67,29.73,29.52,17,4,25,0.16
2013-2-28,44.9,40.6,35.2,38.0,33.2,28.0,95,76,53,29.69,29.60,9,2,14,0.00
2013-3-1,42.3,38.9,34.3,33.0,30.3,26.0,86,72,60,29.86,29.68,11,3,18,0.00
2013-3-2,37.8,34.4,31.7,26.0,23.7,22.0,78,66,54,29.86,29.77,13,4,16,0.00
2013-3-3,35.4,31.9,28.0,27.0,21.8,18.0,82,67,57,29.86,29.77,15,5,21,0.00
2013-3-4,36.5,31.3,27.7,22.0,20.5,18.0,72,65,56,30.02,29.86,18,6,28,0.00
2013-3-5,44.9,35.6,28.8,30.0,25.9,21.0,78,68,54,30.08,29.91,9,3,15,0.00
2013-3-6,40.0,37.7,34.5,37.0,33.0,29.0,95,83,69,29.99,29.77,16,7,31,0.21
2013-3-7,45.6,39.4,34.5,29.0,27.1,24.0,77,62,48,30.13,30.00,23,5,30,0.00
2013-3-8,45.0,38.5,32.8,30.0,25.7,22.0,73,60,54,30.29,30.11,18,6,34,0.00
2013-3-9,59.3,44.5,31.3,28.0,24.5,20.0,74,49,22,30.34,30.25,10,2,14,0.00
2013-3-10,58.0,45.9,31.9,36.0,27.3,20.0,85,51,28,30.34,30.23,11,4,16,0.00
2013-3-11,55.9,46.7,37.0,49.0,43.0,35.0,98,88,68,30.26,29.98,10,4,18,0.00
2013-3-12,56.2,50.7,41.9,56.0,46.7,32.0,100,86,69,29.95,29.72,17,6,22,1.27
2013-3-13,47.1,39.0,32.1,35.0,28.6,19.0,84,67,42,30.00,29.87,17,3,22,0.00
2013-3-14,40.2,34.7,29.3,22.0,17.8,14.0,72,51,37,30.05,29.97,25,6,29,0.00
2013-3-15,53.1,39.6,25.0,34.0,24.7,14.0,75,56,42,30.06,29.75,9,2,19,0.00
2013-3-16,45.7,36.6,32.3,34.0,31.1,25.0,98,82,59,29.95,29.75,9,2,13,0.05
2013-3-17,38.4,33.8,31.2,32.0,27.1,22.0,98,78,55,30.29,29.94,9,2,15,0.06
2013-3-18,35.8,32.5,29.8,33.0,24.8,17.0,98,75,55,30.36,29.92,19,3,20,0.03
2013-3-19,52.5,40.2,33.9,39.0,31.5,19.0,99,76,32,29.91,29.71,13,3,25,0.24
2013-3-20,46.4,37.9,28.8,25.0,21.1,18.0,73,52,32,29.95,29.78,13,3,21,0.00
2013-3-21,36.6,32.1,27.0,25.0,16.2,10.0,69,53,37,29.84,29.73,16,4,22,0.00
2013-3-22,40.3,32.6,26.2,28.0,21.7,16.0,89,65,48,29.98,29.82,17,3,23,0.00
2013-3-23,45.3,37.3,29.9,25.0,22.8,22.0,75,57,42,30.00,29.92,13,4,22,0.00
2013-3-24,45.8,36.6,25.6,29.0,23.4,21.0,85,61,39,30.00,29.68,7,2,12,0.00
2013-3-25,37.3,34.8,32.3,35.0,32.3,27.0,98,91,66,29.68,29.52,8,2,11,0.33
2013-3-26,50.5,40.1,33.3,35.0,32.7,27.0,98,77,42,29.95,29.67,8,2,17,0.09
2013-3-27,49.0,41.4,35.1,31.0,29.9,28.0,82,65,48,30.07,29.94,24,4,25,0.00
2013-3-28,47.7,41.3,34.7,35.0,29.5,27.0,85,64,48,30.19,30.04,11,3,19,0.00
2013-3-29,52.0,45.4,39.7,34.0,30.1,27.0,72,56,40,30.21,30.12,14,4,18,0.00
2013-3-30,57.6,45.9,30.5,35.0,28.7,25.0,88,55,30,30.22,30.10,6,1,11,0.00
2013-3-31,52.8,45.0,35.8,47.0,37.9,28.0,99,77,56,30.12,29.73,15,3,22,0.04
2013-4-1,60.1,45.7,37.2,49.0,34.6,14.0,100,70,33,29.97,29.71,15,4,28,0.01
2013-4-2,43.9,36.9,31.3,20.0,16.1,13.0,56,44,30,30.16,29.97,12,3,24,0.00
2013-4-3,45.1,36.6,28.9,20.0,15.7,12.0,59,44,27,30.36,30.16,14,3,24,0.00
2013-4-4,51.6,38.4,23.9,27.0,19.6,14.0,76,49,28,30.43,30.08,12,2,16,0.00
2013-4-5,61.2,47.9,34.3,37.0,27.3,15.0,95,51,21,30.08,29.80,18,4,22,0.00
2013-4-6,52.4,42.1,33.8,25.0,20.6,16.0,62,44,26,30.34,30.05,10,3,14,0.00
2013-4-7,62.8,51.6,38.3,46.0,38.5,26.0,81,62,48,30.28,29.98,16,6,24,0.00
2013-4-8,76.0,63.0,46.0,53.0,48.2,43.0,90,61,41,30.07,29.93,11,3,16,0.00
2013-4-9,83.0,71.3,57.2,56.0,53.6,50.0,77,55,32,30.03,29.87,8,2,19,0.00
2013-4-10,88.6,72.8,57.9,61.0,57.6,52.0,96,62,37,29.92,29.73,27,2,27,0.11
2013-4-11,73.9,62.6,51.8,65.0,58.3,47.0,100,86,72,29.90,29.79,17,4,20,0.01
2013-4-12,51.5,46.8,44.7,47.0,45.6,44.0,99,95,84,29.89,29.66,17,4,22,0.60
2013-4-13,62.6,51.7,40.3,45.0,39.4,35.0,100,66,42,29.98,29.80,7,2,17,0.01
2013-4-14,64.1,51.0,37.3,38.0,34.6,28.0,94,57,34,30.15,29.98,9,2,18,0.00
2013-4-15,62.4,53.6,47.9,49.0,42.8,35.0,81,67,55,30.32,30.14,10,4,17,0.00
2013-4-16,70.4,59.3,50.2,59.0,52.8,47.0,88,80,66,30.32,30.11,12,5,19,0.00
2013-4-17,70.2,60.7,55.1,58.0,50.5,41.0,100,72,36,30.25,30.10,7,2,11,0.02
2013-4-18,62.6,58.0,54.5,61.0,52.3,40.0,96,82,53,30.26,30.02,11,5,17,0.03
2013-4-19,73.5,63.8,50.8,66.0,60.8,47.0,98,90,76,30.02,29.56,17,6,26,0.97
2013-4-20,55.7,49.0,41.8,48.0,34.4,27.0,96,60,36,30.35,29.76,17,3,23,0.07
2013-4-21,53.4,43.7,33.7,36.0,26.5,23.0,80,52,34,30.60,30.35,10,3,14,0.00
2013-4-22,54.9,44.8,33.8,36.0,34.2,32.0,97,69,47,30.61,30.45,15,3,18,0.00
2013-4-23,58.3,48.9,42.6,46.0,40.6,36.0,93,74,57,30.45,30.14,7,2,12,0.00
2013-4-24,70.2,54.7,38.3,59.0,50.0,38.0,100,86,62,30.13,29.78,16,3,23,0.09
2013-4-25,63.0,51.1,41.7,47.0,34.0,29.0,73,54,30,30.30,29.98,14,4,29,0.00
2013-4-26,63.2,50.9,37.1,39.0,33.4,27.0,94,56,27,30.45,30.29,9,2,14,0.00
2013-4-27,68.3,54.2,35.7,41.0,36.3,32.0,90,55,29,30.45,30.28,6,2,8,0.00
2013-4-28,68.8,56.4,42.2,48.0,41.7,36.0,89,60,34,30.29,30.16,16,4,19,0.03
2013-4-29,57.5,54.3,51.0,57.0,52.2,41.0,99,93,64,30.18,30.08,10,4,15,0.31
2013-4-30,67.9,58.8,52.3,54.0,49.9,38.0,99,75,48,30.31,30.14,10,4,14,0.01
2013-5-1,70.2,57.4,42.9,44.0,37.0,29.0,80,50,25,30.45,30.31,8,3,17,0.00
2013-5-2,71.9,57.2,40.5,49.0,44.6,40.0,98,66,37,30.46,30.32,7,2,11,0.00
2013-5-3,67.2,56.9,47.5,47.0,42.9,38.0,87,62,38,30.41,30.31,13,3,16,0.00
2013-5-4,69.6,55.5,39.1,49.0,43.1,39.0,99,67,38,30.35,30.19,9,2,14,0.00
2013-5-5,66.9,53.6,40.1,45.0,41.9,39.0,95,67,43,30.27,30.16,7,2,15,0.00
2013-5-6,66.3,55.0,41.5,56.0,49.2,40.0,97,82,69,30.23,30.10,7,2,12,0.00
2013-5-7,71.3,61.3,53.7,62.0,57.0,51.0,98,86,67,30.12,30.01,12,4,18,0.11
2013-5-8,73.6,62.9,54.6,62.0,57.7,52.0,99,84,55,30.02,29.90,8,2,13,0.05
2013-5-9,70.2,61.2,52.5,60.0,56.8,52.0,100,86,69,29.98,29.91,7,1,15,0.01
2013-5-10,81.9,66.9,51.9,64.0,58.7,52.0,100,79,41,30.01,29.87,9,2,14,0.48
2013-5-11,75.2,64.6,58.4,66.0,62.8,58.0,100,94,66,29.89,29.70,5,2,17,0.21
2013-5-12,59.5,56.0,46.4,57.0,40.1,28.0,96,59,31,30.00,29.72,16,4,24,0.00
2013-5-13,54.9,47.0,37.5,37.0,31.1,26.0,89,56,33,30.16,29.99,11,2,18,0.00
2013-5-14,61.0,48.7,33.9,47.0,32.7,26.0,93,59,27,30.20,30.04,8,1,12,0.02
2013-5-15,72.3,59.1,48.7,61.0,53.2,45.0,97,81,65,30.07,29.70,7,2,11,0.05
2013-5-16,82.6,68.7,57.2,68.0,59.2,51.0,100,76,37,29.88,29.73,8,2,11,0.05
2013-5-17,76.2,66.3,52.2,50.0,45.1,39.0,71,48,27,30.16,29.89,9,2,18,0.00
2013-5-18,69.2,62.6,58.4,59.0,53.2,45.0,97,73,48,30.25,30.17,7,2,11,0.06
2013-5-19,65.6,61.6,58.5,63.0,60.5,57.0,99,96,90,30.24,30.13,8,2,12,0.01
2013-5-20,82.3,70.0,61.4,70.0,65.9,61.0,100,88,64,30.15,29.97,5,1,8,0.00
2013-5-21,85.4,74.3,62.9,73.0,69.0,63.0,100,85,64,29.98,29.84,10,2,14,0.00
2013-5-22,91.1,76.6,66.6,73.0,68.6,64.0,100,79,41,29.90,29.79,13,2,17,0.00
2013-5-23,77.9,69.6,62.7,72.0,67.0,62.0,98,91,74,29.88,29.73,7,2,15,0.67
2013-5-24,62.5,54.4,46.4,62.0,49.9,39.0,99,85,68,30.09,29.70,24,4,26,0.07
2013-5-25,62.9,53.5,45.2,39.0,37.1,35.0,74,55,37,30.11,30.03,17,6,30,0.00
2013-5-26,69.8,58.0,46.2,43.0,38.1,34.0,73,50,29,30.21,30.09,15,3,24,0.00
2013-5-27,72.7,59.2,40.3,47.0,42.3,38.0,96,58,29,30.28,30.16,5,1,10,0.00
2013-5-28,65.0,59.6,54.2,65.0,57.6,46.0,100,93,69,30.20,30.09,5,1,7,0.27
2013-5-29,89.3,74.2,59.3,71.0,65.2,59.0,100,78,47,30.10,30.02,9,2,15,0.00
2013-5-30,91.7,77.9,63.0,71.0,67.4,63.0,100,74,42,30.15,30.08,6,1,9,0.00
2013-5-31,91.4,78.7,65.0,71.0,67.7,60.0,100,72,35,30.12,29.99,11,2,17,0.00
2013-6-1,92.7,79.4,66.3,72.0,69.1,66.0,98,73,45,30.01,29.88,10,2,15,0.00
2013-6-2,85.6,77.5,70.7,72.0,68.7,66.0,99,76,54,29.88,29.79,12,2,20,0.18
2013-6-3,80.4,71.6,64.6,70.0,64.8,58.0,100,81,57,29.91,29.81,13,2,14,0.33
2013-6-4,74.8,64.1,51.9,59.0,48.1,44.0,90,59,36,30.11,29.92,10,2,19,0.00
2013-6-5,79.0,65.2,49.0,52.0,48.6,42.0,94,59,34,30.20,30.06,7,2,12,0.00
2013-6-6,70.6,64.1,60.1,64.0,57.0,49.0,98,79,49,30.10,29.91,11,3,14,0.43
2013-6-7,66.2,63.6,61.5,66.0,63.5,61.0,100,99,96,29.90,29.62,11,3,16,1.22
2013-6-8,76.0,67.3,60.8,65.0,62.9,59.0,100,86,63,30.09,29.67,5,2,11,0.00
2013-6-9,82.5,70.3,56.6,67.0,61.3,56.0,100,76,48,30.20,30.09,5,1,9,0.00
2013-6-10,76.3,70.0,65.2,74.0,68.7,65.0,100,96,84,30.12,29.77,8,3,15,1.71
2013-6-11,79.6,72.7,64.3,69.0,66.2,62.0,100,81,66,29.80,29.71,11,3,19,0.00
2013-6-12,81.5,73.2,62.6,69.0,63.7,61.0,95,73,55,29.84,29.79,15,2,16,0.00
2013-6-13,83.6,71.4,61.5,72.0,65.4,59.0,99,82,60,29.81,29.40,10,3,20,1.19
2013-6-14,77.1,65.4,57.0,60.0,56.4,53.0,97,75,48,29.94,29.57,12,3,17,0.02
2013-6-15,80.5,69.0,55.2,62.0,57.2,53.0,99,69,40,30.05,29.95,8,2,16,0.00
2013-6-16,82.3,69.7,56.6,69.0,61.6,54.0,94,77,50,30.01,29.84,9,1,16,0.03
2013-6-17,86.8,73.1,63.2,72.0,67.6,63.0,100,84,54,29.94,29.86,5,1,22,0.20
2013-6-18,76.4,68.1,63.9,73.0,67.2,64.0,100,97,88,29.91,29.80,3,1,13,0.21
2013-6-19,78.7,67.8,59.0,65.0,58.2,52.0,100,74,42,30.15,29.88,6,1,12,0.00
2013-6-20,79.8,68.0,55.5,65.0,60.2,55.0,100,79,51,30.27,30.15,12,2,13,0.00
2013-6-21,82.1,70.1,55.9,62.0,58.3,55.0,99,69,44,30.31,30.22,7,2,14,0.00
2013-6-22,87.0,73.1,56.8,70.0,64.1,56.0,98,75,52,30.26,30.10,7,2,11,0.00
2013-6-23,85.5,76.1,64.9,74.0,69.7,64.0,98,81,61,30.18,30.04,9,2,13,0.00
2013-6-24,93.0,78.8,69.0,74.0,70.7,67.0,100,79,44,30.10,29.98,5,1,11,0.00
2013-6-25,91.5,77.4,65.4,74.0,69.8,65.0,100,79,51,30.01,29.84,8,1,26,0.04
2013-6-26,90.1,76.0,65.6,75.0,69.4,65.0,100,82,55,29.88,29.77,10,1,19,0.53
2013-6-27,85.9,74.4,68.2,76.0,71.5,68.0,100,92,69,29.82,29.57,9,2,24,0.54
2013-6-28,85.9,74.9,69.7,73.0,69.8,68.0,98,85,59,29.57,29.47,8,2,11,0.00
2013-6-29,86.2,76.1,64.5,69.0,66.3,62.0,99,74,45,29.70,29.48,5,1,13,0.04
2013-6-30,85.6,75.7,67.3,76.0,71.5,67.0,100,88,67,29.86,29.69,12,2,17,0.00
2013-7-1,80.1,74.4,69.6,76.0,71.0,-99.9,100,91,79,29.98,29.85,8,-8,16,0.78
2013-7-2,84.5,76.9,73.2,76.0,73.8,72.0,99,90,73,30.15,29.98,11,4,16,0.04
2013-7-3,87.0,76.8,71.8,76.0,73.6,71.0,98,90,66,30.23,30.15,5,2,11,0.04
2013-7-4,88.6,79.6,71.9,76.0,74.2,72.0,100,85,63,30.23,30.14,10,2,16,0.01
2013-7-5,91.2,81.5,72.0,76.0,73.7,72.0,99,79,58,30.20,30.09,10,2,14,0.00
2013-7-6,94.0,81.0,71.0,76.0,73.9,71.0,99,81,53,30.16,30.03,4,1,12,0.00
2013-7-7,91.9,79.1,69.3,77.0,72.6,69.0,99,82,58,30.08,29.95,9,1,16,0.14
2013-7-8,85.5,74.1,67.2,73.0,69.7,67.0,100,87,60,30.08,30.01,5,1,11,0.00
2013-7-9,84.8,75.6,69.2,77.0,71.7,69.0,100,88,71,30.08,29.99,6,1,11,0.16
2013-7-10,88.8,77.8,70.2,76.0,73.3,70.0,100,87,64,30.00,29.82,7,1,12,0.06
2013-7-11,84.1,75.9,70.1,74.0,70.3,64.0,95,83,61,29.92,29.81,5,1,9,0.00
2013-7-12,72.2,70.3,68.5,71.0,66.0,62.0,99,87,73,30.03,29.91,8,2,11,0.70
2013-7-13,83.8,75.4,68.8,77.0,71.9,69.0,100,90,71,30.28,30.02,6,2,13,0.06
2013-7-14,91.6,80.9,71.6,78.0,73.7,71.0,100,81,54,30.34,30.24,5,1,10,0.00
2013-7-15,92.3,81.0,70.0,78.0,73.8,70.0,100,81,53,30.28,30.16,7,1,9,0.00
2013-7-16,92.0,81.8,72.9,75.0,73.0,70.0,100,77,50,30.23,30.15,10,2,13,0.00
2013-7-17,93.9,81.6,69.7,78.0,72.2,69.0,99,76,46,30.21,30.07,6,1,10,0.00
2013-7-18,97.3,84.5,73.2,80.0,75.4,72.0,97,76,48,30.09,29.97,7,1,10,0.00
2013-7-19,95.6,83.7,74.6,81.0,75.4,68.0,100,78,55,29.99,29.82,7,1,14,0.01
2013-7-20,91.2,80.8,71.1,76.0,72.0,68.0,97,76,59,29.86,29.76,8,1,14,0.00
2013-7-21,88.3,78.3,71.7,75.0,69.8,-99.9,93,77,57,29.93,29.84,2,-10,6,0.00
2013-7-22,88.1,77.3,71.4,76.0,72.7,70.0,99,86,65,29.93,29.77,7,2,12,0.41
2013-7-23,85.9,76.6,71.1,75.0,71.8,68.0,100,86,62,29.76,29.60,7,2,12,0.01
2013-7-24,78.2,71.9,63.5,69.0,64.4,54.0,99,79,55,29.95,29.65,10,3,18,0.00
2013-7-25,73.8,65.3,52.8,63.0,58.1,52.0,97,78,67,30.04,29.95,7,2,10,0.00
2013-7-26,83.4,70.7,61.4,64.0,59.0,-99.9,97,71,40,30.07,30.01,9,-9,9,0.00
2013-7-27,82.8,72.4,60.4,71.0,66.6,60.0,100,83,64,30.04,29.90,12,3,15,0.00
2013-7-28,84.1,74.2,67.7,73.0,69.3,66.0,99,86,59,29.95,29.88,6,2,11,0.11
2013-7-29,81.0,70.8,60.5,71.0,60.6,55.0,99,73,43,30.14,29.96,7,2,14,0.01
2013-7-30,79.7,69.1,58.0,62.0,59.0,56.0,95,72,49,30.21,30.13,6,1,14,0.00
2013-7-31,80.2,69.4,58.0,68.0,63.3,58.0,100,82,60,30.16,30.01,6,1,11,0.00
2013-8-1,78.6,70.5,67.3,74.0,68.9,66.0,100,95,81,30.00,29.81,4,1,9,0.41
2013-8-2,84.0,72.6,64.4,69.0,64.4,60.0,100,78,48,29.94,29.83,6,1,10,0.01
2013-8-3,77.7,69.9,64.6,69.0,65.6,62.0,97,86,70,29.94,29.88,9,1,12,0.01
2013-8-4,76.5,67.9,59.2,65.0,59.1,56.0,99,76,50,30.01,29.89,10,2,19,0.00
2013-8-5,76.1,65.2,54.5,61.0,55.9,51.0,99,75,43,30.11,30.01,4,1,10,0.00
2013-8-6,74.6,65.8,56.6,65.0,61.4,56.0,99,86,67,30.09,30.04,9,3,14,0.00
2013-8-7,76.2,70.6,65.9,72.0,68.5,65.0,99,93,85,30.09,30.00,8,2,11,0.27
2013-8-8,86.3,75.4,68.1,77.0,72.4,68.0,100,91,67,30.03,29.96,10,2,18,0.10
2013-8-9,86.1,78.5,73.5,78.0,74.7,73.0,100,89,73,29.97,29.82,6,2,12,0.10
2013-8-10,84.6,74.7,65.5,73.0,66.9,63.0,99,78,52,30.05,29.91,9,1,10,0.00
2013-8-11,86.1,72.0,61.3,70.0,65.1,61.0,100,81,53,30.13,30.00,4,1,8,0.02
2013-8-12,84.6,74.3,67.3,72.0,68.1,65.0,100,83,53,30.03,29.91,6,1,10,0.00
2013-8-13,83.2,71.8,65.0,72.0,68.2,61.0,100,89,66,29.90,29.71,7,1,10,2.01
2013-8-14,72.1,63.9,55.1,60.0,53.7,50.0,95,70,53,30.08,29.80,13,3,25,0.00
2013-8-15,76.8,62.1,49.6,58.0,53.7,49.0,99,78,44,30.18,30.09,4,1,9,0.00
2013-8-16,79.9,65.2,51.1,63.0,56.3,51.0,100,77,42,30.20,30.14,4,1,7,0.00
2013-8-17,81.0,67.9,54.6,65.0,59.1,54.0,100,77,45,30.27,30.21,7,1,9,0.00
2013-8-18,68.7,64.5,61.2,66.0,62.5,61.0,99,93,82,30.26,30.16,3,1,9,0.10
2013-8-19,77.5,63.1,58.9,68.0,55.0,-99.9,100,86,72,30.17,30.06,3,-42,6,0.00
2013-8-20,86.3,71.6,61.8,73.0,65.9,62.0,100,85,50,30.16,30.08,6,1,9,0.01
2013-8-21,87.9,73.1,59.2,75.0,67.4,59.0,100,84,53,30.20,30.05,6,1,6,0.00
2013-8-22,85.5,76.8,70.1,74.0,71.3,67.0,100,84,63,30.07,29.89,6,1,11,0.00
2013-8-23,76.9,68.9,62.3,68.0,65.4,59.0,100,89,60,30.11,29.93,7,1,10,0.00
2013-8-24,81.2,68.1,57.4,61.0,57.3,54.0,96,71,43,30.34,30.12,5,2,11,0.00
2013-8-25,81.5,67.1,52.4,64.0,58.0,52.0,100,76,43,30.42,30.25,4,1,10,0.00
2013-8-26,86.5,72.4,57.2,68.0,62.9,55.0,97,74,52,30.26,29.95,8,1,12,0.00
2013-8-27,85.7,77.1,69.2,73.0,69.3,66.0,95,78,59,29.95,29.85,7,1,14,0.00
2013-8-28,79.1,72.9,69.0,76.0,71.8,69.0,100,96,86,29.89,29.81,4,1,8,0.20
2013-8-29,82.7,72.8,67.9,73.0,70.3,68.0,100,92,66,30.01,29.86,4,1,9,0.00
2013-8-30,87.2,76.0,69.7,74.0,70.8,68.0,98,85,59,30.02,29.85,6,2,12,0.00
2013-8-31,88.2,76.6,69.0,78.0,72.4,68.0,99,87,63,29.88,29.77,8,1,11,0.03
2013-9-1,88.2,77.7,68.4,76.0,73.3,68.0,100,87,64,29.83,29.75,4,1,9,0.01
2013-9-2,88.9,77.1,69.8,75.0,72.1,68.0,100,86,57,29.78,29.69,11,1,31,0.21
2013-9-3,78.9,71.6,64.4,70.0,63.2,57.0,100,77,52,29.93,29.71,9,3,16,0.01
2013-9-4,81.4,68.8,57.5,61.0,58.1,56.0,96,71,45,30.06,29.93,11,2,11,0.00
2013-9-5,77.7,67.1,55.8,64.0,56.6,48.0,94,71,38,30.16,29.98,14,2,17,0.00
2013-9-6,70.1,59.4,47.8,51.0,45.5,39.0,95,64,33,30.27,30.15,6,2,10,0.00
2013-9-7,80.3,63.0,46.2,61.0,52.8,46.0,99,74,35,30.15,29.93,8,1,11,0.00
2013-9-8,80.0,69.4,58.1,68.0,61.3,51.0,99,77,57,30.08,29.88,9,2,17,0.01
2013-9-9,74.0,62.4,46.8,64.0,55.4,46.0,98,79,63,30.22,30.09,6,2,12,0.00
2013-9-10,91.4,78.9,66.8,77.0,72.1,65.0,97,81,59,30.16,30.04,12,2,12,0.00
2013-9-11,93.1,80.5,69.4,78.0,73.8,69.0,100,82,57,30.12,29.98,11,2,20,0.00
2013-9-12,87.3,74.3,67.6,76.0,71.4,67.0,100,91,69,29.97,29.72,18,1,25,0.23
2013-9-13,72.4,66.6,57.9,69.0,58.6,51.0,100,78,51,29.91,29.67,12,3,20,0.01
2013-9-14,62.5,55.1,45.9,51.0,48.3,45.0,98,79,60,30.16,29.92,11,2,15,0.00
2013-9-15,74.0,57.9,41.9,57.0,50.4,42.0,100,79,49,30.25,30.09,5,1,11,0.00
2013-9-16,69.2,60.6,56.0,60.0,56.4,52.0,99,87,59,30.26,30.04,7,2,13,0.12
2013-9-17,64.9,53.5,42.6,51.0,44.2,41.0,97,73,46,30.45,30.27,8,2,14,0.00
2013-9-18,69.7,54.7,40.7,52.0,46.5,41.0,100,77,44,30.36,30.20,8,1,9,0.00
2013-9-19,76.7,59.6,42.4,59.0,51.9,42.0,100,79,48,30.21,30.07,5,2,8,0.00
2013-9-20,78.2,64.0,50.0,62.0,57.3,50.0,100,81,54,30.09,29.96,9,2,16,0.01
2013-9-21,75.0,64.7,57.1,65.0,60.7,55.0,99,88,63,29.98,29.68,13,3,22,0.76
2013-9-22,66.8,60.2,52.4,61.0,53.4,47.0,100,80,54,29.95,29.70,10,2,15,0.01
2013-9-23,63.2,54.3,45.5,48.0,45.7,42.0,97,74,55,30.08,29.96,10,2,17,0.00
2013-9-24,70.4,54.0,40.4,52.0,46.7,40.0,100,79,47,30.11,29.94,9,2,11,0.00
2013-9-25,73.6,55.9,42.7,53.0,47.6,43.0,100,78,38,29.99,29.89,5,1,8,0.01
2013-9-26,74.6,59.4,46.7,58.0,53.0,47.0,100,82,49,30.08,29.94,5,1,7,0.00
2013-9-27,71.6,63.4,53.4,58.0,55.7,52.0,95,78,53,30.25,30.08,6,1,11,0.00
2013-9-28,72.5,60.8,51.3,58.0,53.3,51.0,99,78,50,30.32,30.23,6,1,11,0.00
2013-9-29,72.0,58.5,46.6,58.0,52.2,46.0,100,82,53,30.23,30.07,5,2,8,0.00
2013-9-30,74.0,59.5,48.2,58.0,53.0,48.0,100,82,47,30.09,29.98,6,1,7,0.00
2013-10-1,78.7,63.1,49.7,63.0,56.6,50.0,100,82,51,30.06,29.94,7,2,13,0.01
2013-10-2,83.0,67.5,52.8,64.0,60.1,53.0,100,80,50,30.05,29.96,8,2,12,0.00
2013-10-3,82.0,69.0,56.5,67.0,62.4,56.0,100,81,55,30.12,30.03,6,1,9,0.00
2013-10-4,83.8,70.5,59.5,69.0,65.0,60.0,100,85,55,30.08,29.99,7,1,11,0.10
2013-10-5,86.4,73.4,64.5,71.0,67.6,65.0,100,84,55,30.08,29.98,7,1,8,0.01
2013-10-6,82.8,72.3,66.0,72.0,67.9,65.0,99,86,62,30.04,29.92,10,3,16,0.00
2013-10-7,73.1,64.9,51.2,70.0,62.9,48.0,99,93,83,30.02,29.73,18,4,23,1.24
2013-10-8,65.9,54.4,44.4,51.0,47.9,44.0,100,81,51,30.31,30.03,6,1,15,0.00
2013-10-9,59.5,53.9,46.7,50.0,47.8,45.0,97,80,64,30.37,30.26,7,2,12,0.00
2013-10-10,56.6,54.4,50.7,57.0,52.7,48.0,100,94,79,30.25,30.02,10,3,18,2.10
2013-10-11,62.2,58.2,54.5,61.0,58.1,55.0,100,99,95,30.06,29.97,9,3,14,2.83
2013-10-12,70.2,64.1,58.6,60.0,54.2,45.0,95,72,47,30.21,30.03,8,3,17,0.00
2013-10-13,68.0,61.0,53.4,56.0,52.9,49.0,87,75,57,30.36,30.21,9,3,16,0.00
2013-10-14,68.2,56.0,48.3,54.0,51.2,48.0,99,85,59,30.36,30.24,6,1,7,0.00
2013-10-15,71.8,57.9,46.4,57.0,51.4,46.0,100,81,50,30.25,30.11,7,1,9,0.00
2013-10-16,66.5,60.2,54.4,61.0,56.0,49.0,97,86,76,30.10,29.91,4,1,6,0.00
2013-10-17,71.0,64.6,60.1,65.0,62.2,58.0,99,92,77,29.91,29.69,8,2,12,0.08
2013-10-18,61.6,55.6,44.0,58.0,45.9,43.0,96,71,51,30.01,29.78,11,3,20,0.00
2013-10-19,61.6,50.9,39.5,55.0,47.1,40.0,100,88,62,30.01,29.76,10,2,13,0.09
2013-10-20,60.2,50.4,40.9,51.0,41.1,38.0,98,72,47,30.09,29.83,10,2,16,0.00
2013-10-21,66.1,50.3,36.1,47.0,41.1,36.0,100,75,40,30.16,29.96,15,3,19,0.00
2013-10-22,60.5,50.7,40.2,51.0,44.0,34.0,100,80,45,29.96,29.80,6,1,15,0.00
2013-10-23,53.2,44.3,37.6,39.0,36.1,32.0,94,75,46,29.84,29.67,7,1,15,0.00
2013-10-24,49.5,41.9,35.5,36.0,32.4,29.0,90,70,46,30.09,29.85,9,1,18,0.00
2013-10-25,51.0,42.2,32.4,38.0,33.3,30.0,92,72,58,30.28,30.10,9,2,17,0.00
2013-10-26,55.6,44.4,29.6,36.0,31.9,29.0,97,65,39,30.28,29.92,15,2,22,0.00
2013-10-27,54.9,46.9,36.9,38.0,34.1,32.0,83,62,45,30.16,29.92,15,2,25,0.00
2013-10-28,59.4,43.9,30.3,40.0,35.3,30.0,99,75,43,30.31,30.15,6,1,8,0.00
2013-10-29,58.9,47.1,37.9,42.0,39.0,36.0,93,75,49,30.41,30.31,7,1,8,0.00
2013-10-30,60.9,51.4,43.3,55.0,49.1,42.0,99,92,78,30.34,30.17,4,1,7,0.00
2013-10-31,65.3,58.4,49.8,61.0,56.7,50.0,100,94,83,30.21,29.76,9,3,19,0.03
2013-11-1,72.0,63.5,51.6,64.0,55.6,46.0,98,77,49,29.75,29.52,16,4,26,0.47
2013-11-2,63.2,54.8,47.1,51.0,45.7,41.0,94,73,53,29.84,29.64,7,2,13,0.00
2013-11-3,50.8,44.8,30.5,44.0,32.7,24.0,85,64,40,30.48,29.84,13,4,23,0.00
2013-11-4,44.5,35.7,26.2,26.0,23.2,20.0,88,63,40,30.65,30.49,5,1,9,0.00
2013-11-5,56.4,46.3,34.7,45.0,38.4,25.0,90,74,62,30.63,30.48,6,1,9,0.00
2013-11-6,63.8,55.1,47.9,52.0,49.1,45.0,93,81,63,30.47,30.05,12,2,16,0.00
2013-11-7,57.8,52.9,42.5,57.0,47.1,27.0,98,81,54,30.04,29.85,13,4,21,0.12
2013-11-8,47.6,41.2,35.3,34.0,29.1,26.0,80,63,49,30.29,30.03,20,3,24,0.00
2013-11-9,51.9,40.2,28.1,36.0,30.9,26.0,93,71,44,30.35,30.00,10,2,14,0.00
2013-11-10,57.0,44.3,31.1,41.0,33.2,30.0,98,68,47,30.16,29.94,9,3,21,0.00
2013-11-11,53.0,47.0,36.5,36.0,33.0,29.0,75,59,45,30.26,30.00,8,2,12,0.00
2013-11-12,50.3,37.2,27.3,39.0,23.4,14.0,80,58,43,30.37,29.97,14,3,30,0.00
2013-11-13,39.6,32.2,24.9,22.0,19.6,15.0,82,61,45,30.46,30.35,17,2,21,0.00
2013-11-14,54.3,38.9,25.7,26.0,19.5,15.0,82,51,22,30.35,30.21,9,1,12,0.00
2013-11-15,56.2,41.1,27.9,34.0,28.0,20.0,82,62,35,30.28,30.19,4,1,6,0.00
2013-11-16,57.4,47.7,39.6,49.0,42.9,-99.9,98,87,69,30.34,30.25,6,-9,8,0.04
2013-11-17,61.1,55.5,49.2,59.0,54.0,49.0,100,95,85,30.24,29.71,11,3,19,0.01
2013-11-18,63.3,57.4,47.0,61.0,40.1,26.0,97,57,32,29.90,29.64,14,4,29,0.15
2013-11-19,46.7,41.8,33.0,29.0,26.6,23.0,69,55,46,30.39,29.90,16,6,26,0.00
2013-11-20,45.7,35.6,26.2,27.0,19.9,14.0,84,56,28,30.59,30.38,11,2,14,0.00
2013-11-21,48.7,39.1,27.1,39.0,29.2,15.0,79,68,55,30.61,30.38,4,1,6,0.00
2013-11-22,52.5,48.6,45.6,49.0,46.1,40.0,99,91,79,30.38,29.99,8,1,15,0.04
2013-11-23,52.5,40.0,28.4,47.0,27.0,10.0,82,60,43,30.16,30.00,16,5,34,0.00
2013-11-24,28.7,25.4,22.2,13.0,4.8,0.0,64,42,31,30.48,30.16,24,6,39,0.00
2013-11-25,33.5,26.9,18.7,20.0,14.2,11.0,75,60,41,30.55,30.34,8,2,11,0.00
2013-11-26,44.8,34.0,31.1,45.0,26.9,16.0,100,78,52,30.34,29.61,9,2,19,1.00
2013-11-27,48.4,37.4,29.9,48.0,33.8,18.0,100,88,61,29.93,29.48,14,5,29,0.38
2013-11-28,33.7,30.1,27.8,24.0,19.3,17.0,79,65,53,30.49,29.94,14,4,23,0.00
2013-11-29,37.1,29.3,23.4,27.0,22.0,18.0,93,75,53,30.75,30.48,7,2,13,0.00
2013-11-30,36.2,28.2,18.0,28.0,22.0,16.0,92,78,65,30.75,30.39,5,1,10,0.00
2013-12-1,40.8,33.9,25.3,32.0,28.6,24.0,97,82,64,30.38,30.03,4,1,6,0.00
2013-12-2,45.5,38.7,35.0,37.0,33.6,31.0,91,82,67,30.03,29.89,3,1,5,0.00
2013-12-3,51.2,40.8,34.1,39.0,36.0,33.0,97,84,63,30.02,29.90,3,1,7,0.00
2013-12-4,53.0,44.5,33.7,49.0,40.7,33.0,98,87,74,30.12,30.00,5,1,7,0.00
2013-12-5,57.0,52.6,48.9,57.0,52.6,48.0,100,100,97,30.09,29.92,5,2,12,0.00
2013-12-6,58.6,45.5,35.2,59.0,45.1,35.0,100,98,94,30.18,29.86,8,2,19,1.24
2013-12-7,37.3,33.8,28.8,35.0,29.5,23.0,98,84,70,30.55,30.12,12,3,16,0.01
2013-12-8,28.7,27.1,26.0,28.0,22.5,18.0,98,84,67,30.60,30.34,4,1,12,0.00
2013-12-9,34.8,32.7,28.3,35.0,32.5,28.0,100,99,98,30.33,30.04,5,0,7,0.07
2013-12-10,32.7,29.2,21.2,33.0,28.3,19.0,100,96,84,30.19,29.97,6,1,17,0.01
2013-12-11,32.9,23.9,13.9,23.0,18.6,12.0,95,81,62,30.39,30.19,5,1,13,0.00
2013-12-12,26.5,22.4,17.3,22.0,11.4,-99.9,92,65,50,30.42,30.21,9,-9,20,0.00
2013-12-13,36.0,25.4,14.3,21.0,15.6,7.0,84,67,51,30.35,30.19,7,1,16,0.00
2013-12-14,31.2,28.9,26.1,30.0,25.5,21.0,99,87,74,30.40,29.77,12,4,18,0.00
2013-12-15,39.0,31.8,25.7,35.0,28.8,22.0,99,89,68,29.90,29.62,16,2,20,0.02
2013-12-16,31.5,25.0,19.7,24.0,13.7,10.0,86,63,48,30.23,29.90,13,2,20,0.00
2013-12-17,26.9,23.7,18.1,25.0,20.9,17.0,96,89,71,30.21,29.98,4,1,7,0.00
2013-12-18,36.7,28.0,18.1,26.0,22.0,17.0,98,80,56,30.21,30.00,6,1,14,0.02
2013-12-19,41.0,30.0,18.0,29.0,24.6,17.0,96,81,60,30.21,30.08,4,1,5,0.07
2013-12-20,49.7,39.9,31.4,36.0,32.2,28.0,90,75,56,30.11,29.98,3,1,5,0.06
2013-12-21,59.2,48.2,37.8,57.0,44.2,34.0,95,86,73,30.01,29.88,5,2,10,0.00
2013-12-22,65.1,61.3,56.3,63.0,59.6,56.0,99,94,83,29.97,29.78,12,4,22,0.15
2013-12-23,56.8,49.9,35.9,57.0,47.3,29.0,100,91,72,30.21,29.92,13,2,24,0.64
2013-12-24,37.1,30.8,23.0,29.0,22.4,12.0,94,72,56,30.44,30.18,17,3,25,0.00
2013-12-25,27.7,23.5,16.9,20.0,13.5,9.0,82,66,53,30.57,30.40,6,2,12,0.00
2013-12-26,36.9,27.5,22.3,29.0,23.6,18.0,96,85,71,30.40,30.23,3,1,8,0.04
2013-12-27,44.8,30.1,17.8,28.0,22.4,16.0,97,76,43,30.40,30.30,5,1,11,0.01
2013-12-28,56.3,38.7,23.8,33.0,27.4,22.0,94,68,38,30.31,30.11,4,1,11,0.00
2013-12-29,41.3,39.1,36.1,41.0,36.4,29.0,100,91,69,30.10,29.52,7,2,14,0.74
2013-12-30,42.6,35.0,24.6,41.0,27.0,-99.9,100,76,59,30.19,29.78,17,-7,23,0.00
2013-12-31,36.5,27.4,20.5,27.0,18.5,15.0,86,70,49,30.33,30.08,11,2,32,0.00
2014-1-1,36.0,28.4,18.5,27.0,22.4,14.0,89,78,62,30.42,30.18,5,1,11,0.00
2014-1-2,31.9,27.2,19.5,28.0,24.0,18.0,96,88,76,30.17,29.69,12,2,14,0.00